sensor_id;sensor_type;location;lat;lon;timestamp;P1;durP1;ratioP1;P2;durP2;ratioP2
23129;SDS011;11734;51.046;13.778;2023-07-30T00:01:36;4.03;;;3.27;;
23129;SDS011;11734;51.046;13.778;2023-07-30T00:04:04;3.70;;;2.80;;
23129;SDS011;11734;51.046;13.778;2023-07-30T00:06:31;3.00;;;2.70;;
23129;SDS011;11734;51.046;13.778;2023-07-30T00:08:59;3.30;;;2.57;;
23129;SDS011;11734;51.046;13.778;2023-07-30T00:11:26;3.23;;;2.70;;
23129;SDS011;11734;51.046;13.778;2023-07-30T00:13:53;3.07;;;2.50;;
23129;SDS011;11734;51.046;13.778;2023-07-30T00:16:20;3.07;;;2.50;;
23129;SDS011;11734;51.046;13.778;2023-07-30T00:18:48;2.67;;;2.43;;
23129;SDS011;11734;51.046;13.778;2023-07-30T00:21:15;3.63;;;3.07;;
23129;SDS011;11734;51.046;13.778;2023-07-30T00:23:42;3.77;;;2.90;;
23129;SDS011;11734;51.046;13.778;2023-07-30T00:26:10;3.57;;;2.87;;
23129;SDS011;11734;51.046;13.778;2023-07-30T00:28:37;3.97;;;3.13;;
23129;SDS011;11734;51.046;13.778;2023-07-30T00:31:04;2.83;;;2.53;;
23129;SDS011;11734;51.046;13.778;2023-07-30T00:33:31;3.27;;;2.50;;
23129;SDS011;11734;51.046;13.778;2023-07-30T00:36:02;2.73;;;2.27;;
23129;SDS011;11734;51.046;13.778;2023-07-30T00:38:29;2.47;;;2.20;;
23129;SDS011;11734;51.046;13.778;2023-07-30T00:40:56;3.33;;;2.90;;
23129;SDS011;11734;51.046;13.778;2023-07-30T00:43:24;3.23;;;2.40;;
23129;SDS011;11734;51.046;13.778;2023-07-30T00:45:51;2.90;;;2.60;;
23129;SDS011;11734;51.046;13.778;2023-07-30T00:48:18;2.60;;;2.40;;
23129;SDS011;11734;51.046;13.778;2023-07-30T00:50:47;2.93;;;2.63;;
23129;SDS011;11734;51.046;13.778;2023-07-30T00:53:14;4.67;;;2.30;;
23129;SDS011;11734;51.046;13.778;2023-07-30T00:55:43;4.07;;;2.50;;
23129;SDS011;11734;51.046;13.778;2023-07-30T00:58:29;3.33;;;2.70;;
23129;SDS011;11734;51.046;13.778;2023-07-30T01:00:57;2.87;;;2.57;;
23129;SDS011;11734;51.046;13.778;2023-07-30T01:03:24;3.07;;;2.10;;
23129;SDS011;11734;51.046;13.778;2023-07-30T01:05:52;3.30;;;2.07;;
23129;SDS011;11734;51.046;13.778;2023-07-30T01:08:19;2.40;;;2.20;;
23129;SDS011;11734;51.046;13.778;2023-07-30T01:10:47;4.20;;;2.60;;
23129;SDS011;11734;51.046;13.778;2023-07-30T01:13:15;2.40;;;2.20;;
23129;SDS011;11734;51.046;13.778;2023-07-30T01:15:42;3.00;;;2.70;;
23129;SDS011;11734;51.046;13.778;2023-07-30T01:18:10;2.53;;;2.33;;
23129;SDS011;11734;51.046;13.778;2023-07-30T01:20:38;2.60;;;2.10;;
23129;SDS011;11734;51.046;13.778;2023-07-30T01:23:05;3.23;;;2.00;;
23129;SDS011;11734;51.046;13.778;2023-07-30T01:25:33;3.00;;;2.70;;
23129;SDS011;11734;51.046;13.778;2023-07-30T01:28:02;2.23;;;2.03;;
23129;SDS011;11734;51.046;13.778;2023-07-30T01:30:33;2.27;;;2.07;;
23129;SDS011;11734;51.046;13.778;2023-07-30T01:33:02;3.30;;;2.33;;
23129;SDS011;11734;51.046;13.778;2023-07-30T01:35:30;2.60;;;2.30;;
23129;SDS011;11734;51.046;13.778;2023-07-30T01:37:58;4.33;;;2.30;;
23129;SDS011;11734;51.046;13.778;2023-07-30T01:40:28;2.50;;;2.23;;
23129;SDS011;11734;51.046;13.778;2023-07-30T01:42:55;2.50;;;2.30;;
23129;SDS011;11734;51.046;13.778;2023-07-30T01:45:23;4.17;;;2.37;;
23129;SDS011;11734;51.046;13.778;2023-07-30T01:47:50;4.53;;;2.30;;
23129;SDS011;11734;51.046;13.778;2023-07-30T01:50:17;3.13;;;2.10;;
23129;SDS011;11734;51.046;13.778;2023-07-30T01:52:45;3.00;;;2.20;;
23129;SDS011;11734;51.046;13.778;2023-07-30T01:55:12;2.27;;;2.07;;
23129;SDS011;11734;51.046;13.778;2023-07-30T01:57:39;2.53;;;2.33;;
23129;SDS011;11734;51.046;13.778;2023-07-30T02:00:07;2.40;;;1.90;;
23129;SDS011;11734;51.046;13.778;2023-07-30T02:02:34;2.43;;;2.23;;
23129;SDS011;11734;51.046;13.778;2023-07-30T02:05:02;2.40;;;2.27;;
23129;SDS011;11734;51.046;13.778;2023-07-30T02:07:30;4.20;;;2.60;;
23129;SDS011;11734;51.046;13.778;2023-07-30T02:09:57;2.30;;;2.10;;
23129;SDS011;11734;51.046;13.778;2023-07-30T02:12:25;4.73;;;2.50;;
23129;SDS011;11734;51.046;13.778;2023-07-30T02:14:52;3.17;;;2.57;;
23129;SDS011;11734;51.046;13.778;2023-07-30T02:17:19;2.30;;;2.10;;
23129;SDS011;11734;51.046;13.778;2023-07-30T02:19:47;2.77;;;2.10;;
23129;SDS011;11734;51.046;13.778;2023-07-30T02:22:14;2.77;;;2.40;;
23129;SDS011;11734;51.046;13.778;2023-07-30T02:24:42;3.10;;;2.50;;
23129;SDS011;11734;51.046;13.778;2023-07-30T02:27:09;2.37;;;2.17;;
23129;SDS011;11734;51.046;13.778;2023-07-30T02:29:36;3.77;;;2.43;;
23129;SDS011;11734;51.046;13.778;2023-07-30T02:32:04;2.57;;;2.30;;
23129;SDS011;11734;51.046;13.778;2023-07-30T02:34:31;2.37;;;2.17;;
23129;SDS011;11734;51.046;13.778;2023-07-30T02:36:58;4.57;;;2.30;;
23129;SDS011;11734;51.046;13.778;2023-07-30T02:39:26;2.20;;;2.00;;
23129;SDS011;11734;51.046;13.778;2023-07-30T02:41:53;2.50;;;2.20;;
23129;SDS011;11734;51.046;13.778;2023-07-30T02:44:20;2.50;;;2.30;;
23129;SDS011;11734;51.046;13.778;2023-07-30T02:46:47;2.23;;;2.03;;
23129;SDS011;11734;51.046;13.778;2023-07-30T02:49:15;2.80;;;2.57;;
23129;SDS011;11734;51.046;13.778;2023-07-30T02:51:42;3.63;;;2.57;;
23129;SDS011;11734;51.046;13.778;2023-07-30T02:54:14;3.43;;;2.80;;
23129;SDS011;11734;51.046;13.778;2023-07-30T02:56:43;3.10;;;2.80;;
23129;SDS011;11734;51.046;13.778;2023-07-30T02:59:10;2.70;;;2.50;;
23129;SDS011;11734;51.046;13.778;2023-07-30T03:01:38;2.63;;;2.43;;
23129;SDS011;11734;51.046;13.778;2023-07-30T03:04:06;2.70;;;2.50;;
23129;SDS011;11734;51.046;13.778;2023-07-30T03:06:33;2.67;;;2.47;;
23129;SDS011;11734;51.046;13.778;2023-07-30T03:09:01;3.30;;;2.87;;
23129;SDS011;11734;51.046;13.778;2023-07-30T03:11:29;3.03;;;2.77;;
23129;SDS011;11734;51.046;13.778;2023-07-30T03:13:56;3.00;;;2.70;;
23129;SDS011;11734;51.046;13.778;2023-07-30T03:16:23;3.60;;;2.50;;
23129;SDS011;11734;51.046;13.778;2023-07-30T03:18:50;3.50;;;2.50;;
23129;SDS011;11734;51.046;13.778;2023-07-30T03:21:18;2.87;;;2.57;;
23129;SDS011;11734;51.046;13.778;2023-07-30T03:23:45;3.30;;;2.80;;
23129;SDS011;11734;51.046;13.778;2023-07-30T03:26:14;2.70;;;2.50;;
23129;SDS011;11734;51.046;13.778;2023-07-30T03:28:41;3.03;;;2.73;;
23129;SDS011;11734;51.046;13.778;2023-07-30T03:31:09;3.17;;;2.87;;
23129;SDS011;11734;51.046;13.778;2023-07-30T03:33:37;3.20;;;2.90;;
23129;SDS011;11734;51.046;13.778;2023-07-30T03:36:05;3.40;;;2.63;;
23129;SDS011;11734;51.046;13.778;2023-07-30T03:38:32;3.43;;;2.73;;
23129;SDS011;11734;51.046;13.778;2023-07-30T03:41:01;3.17;;;2.73;;
23129;SDS011;11734;51.046;13.778;2023-07-30T03:43:29;3.43;;;2.83;;
23129;SDS011;11734;51.046;13.778;2023-07-30T03:45:56;2.60;;;2.40;;
23129;SDS011;11734;51.046;13.778;2023-07-30T03:48:23;3.30;;;2.70;;
23129;SDS011;11734;51.046;13.778;2023-07-30T03:50:51;3.87;;;2.73;;
23129;SDS011;11734;51.046;13.778;2023-07-30T03:53:19;3.03;;;2.63;;
23129;SDS011;11734;51.046;13.778;2023-07-30T03:55:46;2.47;;;2.27;;
23129;SDS011;11734;51.046;13.778;2023-07-30T03:58:13;4.20;;;2.70;;
23129;SDS011;11734;51.046;13.778;2023-07-30T04:00:41;3.80;;;2.90;;
23129;SDS011;11734;51.046;13.778;2023-07-30T04:03:08;3.23;;;2.70;;
23129;SDS011;11734;51.046;13.778;2023-07-30T04:05:36;3.73;;;2.63;;
23129;SDS011;11734;51.046;13.778;2023-07-30T04:08:03;3.40;;;2.63;;
23129;SDS011;11734;51.046;13.778;2023-07-30T04:10:30;3.73;;;2.80;;
23129;SDS011;11734;51.046;13.778;2023-07-30T04:12:58;4.57;;;2.97;;
23129;SDS011;11734;51.046;13.778;2023-07-30T04:15:26;3.73;;;3.00;;
23129;SDS011;11734;51.046;13.778;2023-07-30T04:17:53;3.77;;;3.10;;
23129;SDS011;11734;51.046;13.778;2023-07-30T04:20:21;3.90;;;2.73;;
23129;SDS011;11734;51.046;13.778;2023-07-30T04:22:48;3.80;;;3.17;;
23129;SDS011;11734;51.046;13.778;2023-07-30T04:25:16;3.87;;;3.47;;
23129;SDS011;11734;51.046;13.778;2023-07-30T04:27:43;3.43;;;2.90;;
23129;SDS011;11734;51.046;13.778;2023-07-30T04:30:11;3.23;;;2.93;;
23129;SDS011;11734;51.046;13.778;2023-07-30T04:32:38;3.30;;;3.00;;
23129;SDS011;11734;51.046;13.778;2023-07-30T04:35:06;4.57;;;3.40;;
23129;SDS011;11734;51.046;13.778;2023-07-30T04:37:33;3.97;;;3.10;;
23129;SDS011;11734;51.046;13.778;2023-07-30T04:40:00;4.80;;;3.07;;
23129;SDS011;11734;51.046;13.778;2023-07-30T04:42:30;4.87;;;3.63;;
23129;SDS011;11734;51.046;13.778;2023-07-30T04:44:57;4.17;;;3.40;;
23129;SDS011;11734;51.046;13.778;2023-07-30T04:47:24;4.00;;;3.60;;
23129;SDS011;11734;51.046;13.778;2023-07-30T04:49:51;3.53;;;3.23;;
23129;SDS011;11734;51.046;13.778;2023-07-30T04:52:19;4.80;;;3.27;;
23129;SDS011;11734;51.046;13.778;2023-07-30T04:54:46;4.50;;;3.83;;
23129;SDS011;11734;51.046;13.778;2023-07-30T04:57:13;6.63;;;4.03;;
23129;SDS011;11734;51.046;13.778;2023-07-30T04:59:41;4.50;;;3.80;;
23129;SDS011;11734;51.046;13.778;2023-07-30T05:02:08;4.27;;;3.20;;
23129;SDS011;11734;51.046;13.778;2023-07-30T05:04:35;4.20;;;3.60;;
23129;SDS011;11734;51.046;13.778;2023-07-30T05:07:03;3.93;;;3.30;;
23129;SDS011;11734;51.046;13.778;2023-07-30T05:09:30;3.93;;;3.43;;
23129;SDS011;11734;51.046;13.778;2023-07-30T05:11:58;3.13;;;2.83;;
23129;SDS011;11734;51.046;13.778;2023-07-30T05:14:26;3.70;;;3.00;;
23129;SDS011;11734;51.046;13.778;2023-07-30T05:16:53;3.73;;;3.17;;
23129;SDS011;11734;51.046;13.778;2023-07-30T05:19:20;3.40;;;3.07;;
23129;SDS011;11734;51.046;13.778;2023-07-30T05:21:48;5.23;;;3.30;;
23129;SDS011;11734;51.046;13.778;2023-07-30T05:24:15;4.00;;;3.03;;
23129;SDS011;11734;51.046;13.778;2023-07-30T05:26:42;3.97;;;3.00;;
23129;SDS011;11734;51.046;13.778;2023-07-30T05:29:09;5.63;;;2.97;;
23129;SDS011;11734;51.046;13.778;2023-07-30T05:31:37;3.17;;;2.87;;
23129;SDS011;11734;51.046;13.778;2023-07-30T05:34:04;3.87;;;3.00;;
23129;SDS011;11734;51.046;13.778;2023-07-30T05:36:32;3.90;;;2.70;;
23129;SDS011;11734;51.046;13.778;2023-07-30T05:38:59;4.30;;;3.13;;
23129;SDS011;11734;51.046;13.778;2023-07-30T05:41:26;3.27;;;2.97;;
23129;SDS011;11734;51.046;13.778;2023-07-30T05:43:53;4.73;;;2.90;;
23129;SDS011;11734;51.046;13.778;2023-07-30T05:46:21;3.40;;;2.87;;
23129;SDS011;11734;51.046;13.778;2023-07-30T05:48:48;3.27;;;2.87;;
23129;SDS011;11734;51.046;13.778;2023-07-30T05:51:15;3.90;;;3.17;;
23129;SDS011;11734;51.046;13.778;2023-07-30T05:53:42;3.40;;;2.83;;
23129;SDS011;11734;51.046;13.778;2023-07-30T05:56:10;3.17;;;2.70;;
23129;SDS011;11734;51.046;13.778;2023-07-30T05:58:39;4.00;;;3.00;;
23129;SDS011;11734;51.046;13.778;2023-07-30T06:01:07;3.43;;;2.73;;
23129;SDS011;11734;51.046;13.778;2023-07-30T06:03:34;2.73;;;2.33;;
23129;SDS011;11734;51.046;13.778;2023-07-30T06:06:02;2.87;;;2.33;;
23129;SDS011;11734;51.046;13.778;2023-07-30T06:08:29;3.30;;;2.50;;
23129;SDS011;11734;51.046;13.778;2023-07-30T06:11:02;3.57;;;2.57;;
23129;SDS011;11734;51.046;13.778;2023-07-30T06:13:30;3.13;;;2.77;;
23129;SDS011;11734;51.046;13.778;2023-07-30T06:15:57;2.90;;;2.57;;
23129;SDS011;11734;51.046;13.778;2023-07-30T06:18:25;2.77;;;2.40;;
23129;SDS011;11734;51.046;13.778;2023-07-30T06:20:52;3.77;;;2.57;;
23129;SDS011;11734;51.046;13.778;2023-07-30T06:23:19;2.90;;;2.47;;
23129;SDS011;11734;51.046;13.778;2023-07-30T06:25:46;2.67;;;2.43;;
23129;SDS011;11734;51.046;13.778;2023-07-30T06:28:14;2.73;;;2.53;;
23129;SDS011;11734;51.046;13.778;2023-07-30T06:30:41;2.80;;;2.53;;
23129;SDS011;11734;51.046;13.778;2023-07-30T06:33:08;2.93;;;2.63;;
23129;SDS011;11734;51.046;13.778;2023-07-30T06:35:35;2.47;;;2.23;;
23129;SDS011;11734;51.046;13.778;2023-07-30T06:38:02;3.73;;;2.30;;
23129;SDS011;11734;51.046;13.778;2023-07-30T06:40:30;3.07;;;2.40;;
23129;SDS011;11734;51.046;13.778;2023-07-30T06:42:57;2.20;;;2.00;;
23129;SDS011;11734;51.046;13.778;2023-07-30T06:45:24;2.83;;;2.50;;
23129;SDS011;11734;51.046;13.778;2023-07-30T06:47:51;2.70;;;2.50;;
23129;SDS011;11734;51.046;13.778;2023-07-30T06:50:19;3.03;;;2.27;;
23129;SDS011;11734;51.046;13.778;2023-07-30T06:52:46;3.23;;;2.80;;
23129;SDS011;11734;51.046;13.778;2023-07-30T06:55:13;2.70;;;2.30;;
23129;SDS011;11734;51.046;13.778;2023-07-30T06:57:40;2.50;;;2.30;;
23129;SDS011;11734;51.046;13.778;2023-07-30T07:00:08;4.00;;;2.73;;
23129;SDS011;11734;51.046;13.778;2023-07-30T07:02:35;2.67;;;2.30;;
23129;SDS011;11734;51.046;13.778;2023-07-30T07:05:03;2.83;;;2.33;;
23129;SDS011;11734;51.046;13.778;2023-07-30T07:07:31;2.50;;;2.30;;
23129;SDS011;11734;51.046;13.778;2023-07-30T07:09:58;2.90;;;2.60;;
23129;SDS011;11734;51.046;13.778;2023-07-30T07:12:25;2.60;;;2.37;;
23129;SDS011;11734;51.046;13.778;2023-07-30T07:14:53;2.30;;;2.10;;
23129;SDS011;11734;51.046;13.778;2023-07-30T07:17:24;2.80;;;2.27;;
23129;SDS011;11734;51.046;13.778;2023-07-30T07:19:51;2.73;;;2.53;;
23129;SDS011;11734;51.046;13.778;2023-07-30T07:22:36;3.67;;;1.90;;
23129;SDS011;11734;51.046;13.778;2023-07-30T07:25:03;2.23;;;2.03;;
23129;SDS011;11734;51.046;13.778;2023-07-30T07:27:31;3.50;;;2.50;;
23129;SDS011;11734;51.046;13.778;2023-07-30T07:29:58;2.20;;;1.97;;
23129;SDS011;11734;51.046;13.778;2023-07-30T07:32:26;2.90;;;2.60;;
23129;SDS011;11734;51.046;13.778;2023-07-30T07:34:53;2.13;;;1.93;;
23129;SDS011;11734;51.046;13.778;2023-07-30T07:37:21;2.60;;;2.13;;
23129;SDS011;11734;51.046;13.778;2023-07-30T07:39:48;2.40;;;2.17;;
23129;SDS011;11734;51.046;13.778;2023-07-30T07:42:15;2.60;;;2.40;;
23129;SDS011;11734;51.046;13.778;2023-07-30T07:44:44;2.33;;;2.07;;
23129;SDS011;11734;51.046;13.778;2023-07-30T07:47:12;2.40;;;2.20;;
23129;SDS011;11734;51.046;13.778;2023-07-30T07:49:39;2.17;;;1.93;;
23129;SDS011;11734;51.046;13.778;2023-07-30T07:52:07;2.93;;;2.07;;
23129;SDS011;11734;51.046;13.778;2023-07-30T07:54:34;2.17;;;1.97;;
23129;SDS011;11734;51.046;13.778;2023-07-30T07:57:02;2.50;;;2.30;;
23129;SDS011;11734;51.046;13.778;2023-07-30T07:59:29;2.50;;;2.30;;
23129;SDS011;11734;51.046;13.778;2023-07-30T08:01:56;2.97;;;2.30;;
23129;SDS011;11734;51.046;13.778;2023-07-30T08:04:24;2.07;;;1.97;;
23129;SDS011;11734;51.046;13.778;2023-07-30T08:06:51;2.53;;;2.20;;
23129;SDS011;11734;51.046;13.778;2023-07-30T08:09:18;2.40;;;2.20;;
23129;SDS011;11734;51.046;13.778;2023-07-30T08:11:46;3.87;;;2.23;;
23129;SDS011;11734;51.046;13.778;2023-07-30T08:14:13;2.00;;;1.90;;
23129;SDS011;11734;51.046;13.778;2023-07-30T08:16:40;9.03;;;3.60;;
23129;SDS011;11734;51.046;13.778;2023-07-30T08:19:08;2.20;;;1.90;;
23129;SDS011;11734;51.046;13.778;2023-07-30T08:21:35;2.40;;;2.20;;
23129;SDS011;11734;51.046;13.778;2023-07-30T08:24:03;2.40;;;2.20;;
23129;SDS011;11734;51.046;13.778;2023-07-30T08:26:31;3.10;;;2.20;;
23129;SDS011;11734;51.046;13.778;2023-07-30T08:28:59;2.40;;;2.10;;
23129;SDS011;11734;51.046;13.778;2023-07-30T08:31:26;2.47;;;2.27;;
23129;SDS011;11734;51.046;13.778;2023-07-30T08:33:53;3.00;;;2.13;;
23129;SDS011;11734;51.046;13.778;2023-07-30T08:36:21;2.30;;;2.10;;
23129;SDS011;11734;51.046;13.778;2023-07-30T08:38:49;2.73;;;2.00;;
23129;SDS011;11734;51.046;13.778;2023-07-30T08:41:16;2.00;;;1.80;;
23129;SDS011;11734;51.046;13.778;2023-07-30T08:43:44;1.67;;;1.57;;
23129;SDS011;11734;51.046;13.778;2023-07-30T08:46:18;1.80;;;1.63;;
23129;SDS011;11734;51.046;13.778;2023-07-30T08:48:45;1.97;;;1.70;;
23129;SDS011;11734;51.046;13.778;2023-07-30T08:51:16;2.10;;;1.90;;
23129;SDS011;11734;51.046;13.778;2023-07-30T08:53:44;3.17;;;2.00;;
23129;SDS011;11734;51.046;13.778;2023-07-30T08:56:11;1.73;;;1.63;;
23129;SDS011;11734;51.046;13.778;2023-07-30T08:58:39;2.90;;;1.87;;
23129;SDS011;11734;51.046;13.778;2023-07-30T09:01:08;2.00;;;1.70;;
23129;SDS011;11734;51.046;13.778;2023-07-30T09:03:39;2.60;;;2.10;;
23129;SDS011;11734;51.046;13.778;2023-07-30T09:06:07;3.23;;;1.90;;
23129;SDS011;11734;51.046;13.778;2023-07-30T09:08:34;1.87;;;1.77;;
23129;SDS011;11734;51.046;13.778;2023-07-30T09:11:09;2.63;;;1.90;;
23129;SDS011;11734;51.046;13.778;2023-07-30T09:13:39;1.80;;;1.70;;
23129;SDS011;11734;51.046;13.778;2023-07-30T09:16:10;1.90;;;1.70;;
23129;SDS011;11734;51.046;13.778;2023-07-30T09:18:41;1.90;;;1.77;;
23129;SDS011;11734;51.046;13.778;2023-07-30T09:21:13;1.83;;;1.73;;
23129;SDS011;11734;51.046;13.778;2023-07-30T09:23:41;1.87;;;1.77;;
23129;SDS011;11734;51.046;13.778;2023-07-30T09:26:08;1.83;;;1.70;;
23129;SDS011;11734;51.046;13.778;2023-07-30T09:28:36;1.97;;;1.70;;
23129;SDS011;11734;51.046;13.778;2023-07-30T09:31:04;1.90;;;1.80;;
23129;SDS011;11734;51.046;13.778;2023-07-30T09:33:46;2.97;;;2.20;;
23129;SDS011;11734;51.046;13.778;2023-07-30T09:36:13;2.30;;;2.10;;
23129;SDS011;11734;51.046;13.778;2023-07-30T09:38:42;2.37;;;1.77;;
23129;SDS011;11734;51.046;13.778;2023-07-30T09:41:10;2.73;;;2.00;;
23129;SDS011;11734;51.046;13.778;2023-07-30T09:43:38;1.83;;;1.73;;
23129;SDS011;11734;51.046;13.778;2023-07-30T09:46:06;2.13;;;2.00;;
23129;SDS011;11734;51.046;13.778;2023-07-30T09:48:34;1.80;;;1.70;;
23129;SDS011;11734;51.046;13.778;2023-07-30T09:51:03;2.30;;;2.10;;
23129;SDS011;11734;51.046;13.778;2023-07-30T09:53:32;2.30;;;2.10;;
23129;SDS011;11734;51.046;13.778;2023-07-30T09:56:02;2.30;;;2.10;;
23129;SDS011;11734;51.046;13.778;2023-07-30T09:58:29;2.40;;;2.20;;
23129;SDS011;11734;51.046;13.778;2023-07-30T10:01:00;3.00;;;1.90;;
23129;SDS011;11734;51.046;13.778;2023-07-30T10:03:28;2.10;;;2.00;;
23129;SDS011;11734;51.046;13.778;2023-07-30T10:05:57;2.40;;;2.20;;
23129;SDS011;11734;51.046;13.778;2023-07-30T10:08:29;2.63;;;2.10;;
23129;SDS011;11734;51.046;13.778;2023-07-30T10:10:58;2.47;;;2.27;;
23129;SDS011;11734;51.046;13.778;2023-07-30T10:13:27;2.50;;;2.30;;
23129;SDS011;11734;51.046;13.778;2023-07-30T10:15:55;2.27;;;2.07;;
23129;SDS011;11734;51.046;13.778;2023-07-30T10:18:37;2.37;;;2.17;;
23129;SDS011;11734;51.046;13.778;2023-07-30T10:21:07;2.70;;;2.50;;
23129;SDS011;11734;51.046;13.778;2023-07-30T10:23:35;2.60;;;2.40;;
23129;SDS011;11734;51.046;13.778;2023-07-30T10:26:09;2.40;;;2.20;;
23129;SDS011;11734;51.046;13.778;2023-07-30T10:28:37;2.63;;;2.40;;
23129;SDS011;11734;51.046;13.778;2023-07-30T10:31:06;3.30;;;1.93;;
23129;SDS011;11734;51.046;13.778;2023-07-30T10:33:45;2.33;;;2.13;;
23129;SDS011;11734;51.046;13.778;2023-07-30T10:36:13;2.30;;;2.10;;
23129;SDS011;11734;51.046;13.778;2023-07-30T10:38:40;2.10;;;1.90;;
23129;SDS011;11734;51.046;13.778;2023-07-30T10:41:18;2.17;;;1.97;;
23129;SDS011;11734;51.046;13.778;2023-07-30T10:43:46;2.37;;;1.90;;
23129;SDS011;11734;51.046;13.778;2023-07-30T10:46:15;2.00;;;1.90;;
23129;SDS011;11734;51.046;13.778;2023-07-30T10:48:43;2.20;;;2.00;;
23129;SDS011;11734;51.046;13.778;2023-07-30T10:51:12;2.03;;;1.93;;
23129;SDS011;11734;51.046;13.778;2023-07-30T10:53:46;2.17;;;2.00;;
23129;SDS011;11734;51.046;13.778;2023-07-30T10:56:16;1.87;;;1.70;;
23129;SDS011;11734;51.046;13.778;2023-07-30T10:58:43;2.00;;;1.87;;
23129;SDS011;11734;51.046;13.778;2023-07-30T11:01:15;1.80;;;1.70;;
23129;SDS011;11734;51.046;13.778;2023-07-30T11:03:42;1.90;;;1.80;;
23129;SDS011;11734;51.046;13.778;2023-07-30T11:06:10;2.10;;;1.90;;
23129;SDS011;11734;51.046;13.778;2023-07-30T11:08:56;1.93;;;1.83;;
23129;SDS011;11734;51.046;13.778;2023-07-30T11:11:23;1.90;;;1.80;;
23129;SDS011;11734;51.046;13.778;2023-07-30T11:13:51;2.20;;;2.00;;
23129;SDS011;11734;51.046;13.778;2023-07-30T11:16:19;2.60;;;2.40;;
23129;SDS011;11734;51.046;13.778;2023-07-30T11:18:46;2.20;;;1.90;;
23129;SDS011;11734;51.046;13.778;2023-07-30T11:21:15;1.70;;;1.60;;
23129;SDS011;11734;51.046;13.778;2023-07-30T11:23:43;1.53;;;1.43;;
23129;SDS011;11734;51.046;13.778;2023-07-30T11:26:14;1.70;;;1.60;;
23129;SDS011;11734;51.046;13.778;2023-07-30T11:28:41;1.80;;;1.70;;
23129;SDS011;11734;51.046;13.778;2023-07-30T11:31:18;1.63;;;1.53;;
23129;SDS011;11734;51.046;13.778;2023-07-30T11:33:48;1.57;;;1.47;;
23129;SDS011;11734;51.046;13.778;2023-07-30T11:36:19;1.43;;;1.33;;
23129;SDS011;11734;51.046;13.778;2023-07-30T11:38:47;1.40;;;1.30;;
23129;SDS011;11734;51.046;13.778;2023-07-30T11:41:15;1.70;;;1.50;;
23129;SDS011;11734;51.046;13.778;2023-07-30T11:43:43;1.40;;;1.30;;
23129;SDS011;11734;51.046;13.778;2023-07-30T11:48:39;1.50;;;1.40;;
23129;SDS011;11734;51.046;13.778;2023-07-30T11:51:06;1.17;;;1.13;;
23129;SDS011;11734;51.046;13.778;2023-07-30T11:53:43;1.50;;;1.40;;
23129;SDS011;11734;51.046;13.778;2023-07-30T11:56:21;1.10;;;1.10;;
23129;SDS011;11734;51.046;13.778;2023-07-30T11:58:49;1.60;;;1.50;;
23129;SDS011;11734;51.046;13.778;2023-07-30T12:01:17;1.37;;;1.27;;
23129;SDS011;11734;51.046;13.778;2023-07-30T12:03:44;1.30;;;1.20;;
23129;SDS011;11734;51.046;13.778;2023-07-30T12:06:12;1.40;;;1.30;;
23129;SDS011;11734;51.046;13.778;2023-07-30T12:08:39;1.43;;;1.33;;
23129;SDS011;11734;51.046;13.778;2023-07-30T12:11:07;1.50;;;1.40;;
23129;SDS011;11734;51.046;13.778;2023-07-30T12:13:53;1.50;;;1.40;;
23129;SDS011;11734;51.046;13.778;2023-07-30T12:16:21;1.50;;;1.40;;
23129;SDS011;11734;51.046;13.778;2023-07-30T12:18:48;1.20;;;1.20;;
23129;SDS011;11734;51.046;13.778;2023-07-30T12:21:15;1.67;;;1.30;;
23129;SDS011;11734;51.046;13.778;2023-07-30T12:23:43;1.30;;;1.20;;
23129;SDS011;11734;51.046;13.778;2023-07-30T12:26:10;1.10;;;1.10;;
23129;SDS011;11734;51.046;13.778;2023-07-30T12:28:37;1.10;;;1.10;;
23129;SDS011;11734;51.046;13.778;2023-07-30T12:31:05;1.20;;;1.10;;
23129;SDS011;11734;51.046;13.778;2023-07-30T12:33:32;1.40;;;1.30;;
23129;SDS011;11734;51.046;13.778;2023-07-30T12:36:00;2.00;;;1.40;;
23129;SDS011;11734;51.046;13.778;2023-07-30T12:38:27;1.50;;;1.40;;
23129;SDS011;11734;51.046;13.778;2023-07-30T12:40:54;1.50;;;1.40;;
23129;SDS011;11734;51.046;13.778;2023-07-30T12:43:21;1.50;;;1.40;;
23129;SDS011;11734;51.046;13.778;2023-07-30T12:45:49;1.40;;;1.30;;
23129;SDS011;11734;51.046;13.778;2023-07-30T12:48:16;1.13;;;1.10;;
23129;SDS011;11734;51.046;13.778;2023-07-30T12:50:43;1.50;;;1.40;;
23129;SDS011;11734;51.046;13.778;2023-07-30T12:53:10;1.37;;;1.27;;
23129;SDS011;11734;51.046;13.778;2023-07-30T12:55:38;1.40;;;1.30;;
23129;SDS011;11734;51.046;13.778;2023-07-30T12:58:05;1.40;;;1.30;;
23129;SDS011;11734;51.046;13.778;2023-07-30T13:00:33;1.83;;;1.40;;
23129;SDS011;11734;51.046;13.778;2023-07-30T13:03:01;1.40;;;1.30;;
23129;SDS011;11734;51.046;13.778;2023-07-30T13:05:29;1.20;;;1.20;;
23129;SDS011;11734;51.046;13.778;2023-07-30T13:07:56;1.47;;;1.37;;
23129;SDS011;11734;51.046;13.778;2023-07-30T13:10:23;1.30;;;1.20;;
23129;SDS011;11734;51.046;13.778;2023-07-30T13:12:50;1.50;;;1.40;;
23129;SDS011;11734;51.046;13.778;2023-07-30T13:15:18;1.40;;;1.30;;
23129;SDS011;11734;51.046;13.778;2023-07-30T13:17:45;1.40;;;1.30;;
23129;SDS011;11734;51.046;13.778;2023-07-30T13:20:12;1.10;;;1.10;;
23129;SDS011;11734;51.046;13.778;2023-07-30T13:22:42;1.40;;;1.30;;
23129;SDS011;11734;51.046;13.778;2023-07-30T13:25:09;1.40;;;1.30;;
23129;SDS011;11734;51.046;13.778;2023-07-30T13:27:36;1.37;;;1.27;;
23129;SDS011;11734;51.046;13.778;2023-07-30T13:30:04;1.30;;;1.20;;
23129;SDS011;11734;51.046;13.778;2023-07-30T13:32:31;1.30;;;1.20;;
23129;SDS011;11734;51.046;13.778;2023-07-30T13:34:59;1.30;;;1.20;;
23129;SDS011;11734;51.046;13.778;2023-07-30T13:37:26;1.40;;;1.30;;
23129;SDS011;11734;51.046;13.778;2023-07-30T13:39:53;1.13;;;1.13;;
23129;SDS011;11734;51.046;13.778;2023-07-30T13:42:21;1.40;;;1.30;;
23129;SDS011;11734;51.046;13.778;2023-07-30T13:44:48;1.53;;;1.30;;
23129;SDS011;11734;51.046;13.778;2023-07-30T13:47:15;1.00;;;1.00;;
23129;SDS011;11734;51.046;13.778;2023-07-30T13:49:43;1.40;;;1.30;;
23129;SDS011;11734;51.046;13.778;2023-07-30T13:52:10;1.07;;;1.07;;
23129;SDS011;11734;51.046;13.778;2023-07-30T13:54:37;1.30;;;1.20;;
23129;SDS011;11734;51.046;13.778;2023-07-30T13:57:05;1.00;;;1.00;;
23129;SDS011;11734;51.046;13.778;2023-07-30T13:59:32;2.53;;;1.53;;
23129;SDS011;11734;51.046;13.778;2023-07-30T14:01:59;1.47;;;1.37;;
23129;SDS011;11734;51.046;13.778;2023-07-30T14:04:27;1.37;;;1.27;;
23129;SDS011;11734;51.046;13.778;2023-07-30T14:06:54;1.40;;;1.30;;
23129;SDS011;11734;51.046;13.778;2023-07-30T14:09:21;1.37;;;1.27;;
23129;SDS011;11734;51.046;13.778;2023-07-30T14:11:51;1.83;;;1.30;;
23129;SDS011;11734;51.046;13.778;2023-07-30T14:14:18;1.40;;;1.30;;
23129;SDS011;11734;51.046;13.778;2023-07-30T14:16:48;1.20;;;1.10;;
23129;SDS011;11734;51.046;13.778;2023-07-30T14:19:15;1.60;;;1.20;;
23129;SDS011;11734;51.046;13.778;2023-07-30T14:21:43;1.40;;;1.30;;
23129;SDS011;11734;51.046;13.778;2023-07-30T14:24:10;1.40;;;1.30;;
23129;SDS011;11734;51.046;13.778;2023-07-30T14:26:38;1.20;;;1.20;;
23129;SDS011;11734;51.046;13.778;2023-07-30T14:29:06;1.10;;;1.00;;
23129;SDS011;11734;51.046;13.778;2023-07-30T14:31:33;1.43;;;1.20;;
23129;SDS011;11734;51.046;13.778;2023-07-30T14:34:03;1.40;;;1.30;;
23129;SDS011;11734;51.046;13.778;2023-07-30T14:36:31;1.10;;;1.10;;
23129;SDS011;11734;51.046;13.778;2023-07-30T14:38:58;1.40;;;1.30;;
23129;SDS011;11734;51.046;13.778;2023-07-30T14:41:25;1.47;;;1.37;;